Lawton, Pennsylvania
Current Conditions -  °F | °C
As of 12:05 PM on Thursday 27 Nov 2014 (Local Time) from KBGM Reporting Station
Light Snow Light Snow  
Wind Chill: 23°   Ceiling: 1400
Heat Index: 28°   Visibility: 2mi
Dew Point: 24°   Wind: 5mph
Humidity: 85%   Direction: 310°NW
Pressure: 29.94"   Gusts: NA
Location:  41.79°N, 76.07°W
Report Text: KBGM 271705Z 31004KT 2SM -SN BR SCT007 OVC014 M02/M04 A2994 RMK AO2 P0000 T10221044 $
Loading
Personal Weather Stations






























Interactive Weather Map New forecast layout! Learn more

10-Day Weather Forecast

Advertisements
Track Severe Weather on mobile